sensor_id;sensor_type;location;lat;lon;timestamp;temperature;humidity
23744;DHT22;12052;53.478;10.182;2022-12-11T00:00:42;-1.60;99.90
23744;DHT22;12052;53.478;10.182;2022-12-11T00:03:08;-1.60;99.90
23744;DHT22;12052;53.478;10.182;2022-12-11T00:05:33;-1.60;99.90
23744;DHT22;12052;53.478;10.182;2022-12-11T00:07:59;-1.60;99.90
23744;DHT22;12052;53.478;10.182;2022-12-11T00:10:25;-1.60;99.90
23744;DHT22;12052;53.478;10.182;2022-12-11T00:12:51;-1.70;99.90
23744;DHT22;12052;53.478;10.182;2022-12-11T00:15:16;-1.60;99.90
23744;DHT22;12052;53.478;10.182;2022-12-11T00:17:42;-1.60;99.90
23744;DHT22;12052;53.478;10.182;2022-12-11T00:20:09;-1.60;99.90
23744;DHT22;12052;53.478;10.182;2022-12-11T00:22:35;-1.60;99.90
23744;DHT22;12052;53.478;10.182;2022-12-11T00:25:00;-1.60;99.90
23744;DHT22;12052;53.478;10.182;2022-12-11T00:27:26;-1.60;99.90
23744;DHT22;12052;53.478;10.182;2022-12-11T00:29:51;-1.60;99.90
23744;DHT22;12052;53.478;10.182;2022-12-11T00:32:17;-1.60;99.90
23744;DHT22;12052;53.478;10.182;2022-12-11T00:34:42;-1.60;99.90
23744;DHT22;12052;53.478;10.182;2022-12-11T00:37:08;-1.60;99.90
23744;DHT22;12052;53.478;10.182;2022-12-11T00:39:34;-1.60;99.90
23744;DHT22;12052;53.478;10.182;2022-12-11T00:42:01;-1.60;99.90
23744;DHT22;12052;53.478;10.182;2022-12-11T00:44:26;-1.60;99.90
23744;DHT22;12052;53.478;10.182;2022-12-11T00:46:52;-1.60;99.90
23744;DHT22;12052;53.478;10.182;2022-12-11T00:49:17;-1.60;99.90
23744;DHT22;12052;53.478;10.182;2022-12-11T00:51:43;-1.60;99.90
23744;DHT22;12052;53.478;10.182;2022-12-11T00:54:09;-1.70;99.90
23744;DHT22;12052;53.478;10.182;2022-12-11T00:56:34;-1.70;99.90
23744;DHT22;12052;53.478;10.182;2022-12-11T00:59:00;-1.70;99.90
23744;DHT22;12052;53.478;10.182;2022-12-11T01:01:25;-1.70;99.90
23744;DHT22;12052;53.478;10.182;2022-12-11T01:03:52;-1.70;99.90
23744;DHT22;12052;53.478;10.182;2022-12-11T01:06:20;-1.70;99.90
23744;DHT22;12052;53.478;10.182;2022-12-11T01:08:46;-1.70;99.90
23744;DHT22;12052;53.478;10.182;2022-12-11T01:11:14;-1.70;99.90
23744;DHT22;12052;53.478;10.182;2022-12-11T01:13:40;-1.80;99.90
23744;DHT22;12052;53.478;10.182;2022-12-11T01:16:11;-1.70;99.90
23744;DHT22;12052;53.478;10.182;2022-12-11T01:18:37;-1.70;99.90
23744;DHT22;12052;53.478;10.182;2022-12-11T01:21:08;-1.80;99.90
23744;DHT22;12052;53.478;10.182;2022-12-11T01:23:35;-1.70;99.90
23744;DHT22;12052;53.478;10.182;2022-12-11T01:26:09;-1.70;99.90
23744;DHT22;12052;53.478;10.182;2022-12-11T01:28:36;-1.70;99.90
23744;DHT22;12052;53.478;10.182;2022-12-11T01:31:01;-1.80;99.90
23744;DHT22;12052;53.478;10.182;2022-12-11T01:33:27;-1.80;99.90
23744;DHT22;12052;53.478;10.182;2022-12-11T01:35:53;-1.80;99.90
23744;DHT22;12052;53.478;10.182;2022-12-11T01:38:19;-1.80;99.90
23744;DHT22;12052;53.478;10.182;2022-12-11T01:40:49;-1.80;99.90
23744;DHT22;12052;53.478;10.182;2022-12-11T01:43:15;-1.70;99.90
23744;DHT22;12052;53.478;10.182;2022-12-11T01:45:42;-1.70;99.90
23744;DHT22;12052;53.478;10.182;2022-12-11T01:48:15;-1.70;99.90
23744;DHT22;12052;53.478;10.182;2022-12-11T01:51:03;-1.70;99.90
23744;DHT22;12052;53.478;10.182;2022-12-11T01:53:39;-1.70;99.90
23744;DHT22;12052;53.478;10.182;2022-12-11T01:56:07;-1.70;99.90
23744;DHT22;12052;53.478;10.182;2022-12-11T01:58:39;-1.70;99.90
23744;DHT22;12052;53.478;10.182;2022-12-11T02:01:05;-1.70;99.90
23744;DHT22;12052;53.478;10.182;2022-12-11T02:03:32;-1.70;99.90
23744;DHT22;12052;53.478;10.182;2022-12-11T02:05:59;-1.70;99.90
23744;DHT22;12052;53.478;10.182;2022-12-11T02:08:25;-1.80;99.90
23744;DHT22;12052;53.478;10.182;2022-12-11T02:11:05;-1.70;99.90
23744;DHT22;12052;53.478;10.182;2022-12-11T02:14:04;-1.80;99.90
23744;DHT22;12052;53.478;10.182;2022-12-11T02:16:43;-1.80;99.90
23744;DHT22;12052;53.478;10.182;2022-12-11T02:19:33;-1.80;99.90
23744;DHT22;12052;53.478;10.182;2022-12-11T02:22:10;-1.70;99.90
23744;DHT22;12052;53.478;10.182;2022-12-11T02:27:43;-1.70;99.90
23744;DHT22;12052;53.478;10.182;2022-12-11T02:30:12;-1.70;99.90
23744;DHT22;12052;53.478;10.182;2022-12-11T02:32:52;-1.70;99.90
23744;DHT22;12052;53.478;10.182;2022-12-11T02:35:23;-1.70;99.90
23744;DHT22;12052;53.478;10.182;2022-12-11T02:37:59;-1.70;99.90
23744;DHT22;12052;53.478;10.182;2022-12-11T02:40:29;-1.70;99.90
23744;DHT22;12052;53.478;10.182;2022-12-11T02:42:57;-1.70;99.90
23744;DHT22;12052;53.478;10.182;2022-12-11T02:45:26;-1.70;99.90
23744;DHT22;12052;53.478;10.182;2022-12-11T02:47:52;-1.70;99.90
23744;DHT22;12052;53.478;10.182;2022-12-11T02:50:20;-1.70;99.90
23744;DHT22;12052;53.478;10.182;2022-12-11T02:52:49;-1.70;99.90
23744;DHT22;12052;53.478;10.182;2022-12-11T02:55:16;-1.60;99.90
23744;DHT22;12052;53.478;10.182;2022-12-11T02:58:07;-1.60;99.90
23744;DHT22;12052;53.478;10.182;2022-12-11T03:00:33;-1.60;99.90
23744;DHT22;12052;53.478;10.182;2022-12-11T03:02:59;-1.60;99.90
23744;DHT22;12052;53.478;10.182;2022-12-11T03:05:25;-1.70;99.90
23744;DHT22;12052;53.478;10.182;2022-12-11T03:07:52;-1.60;99.90
23744;DHT22;12052;53.478;10.182;2022-12-11T03:10:18;-1.60;99.90
23744;DHT22;12052;53.478;10.182;2022-12-11T03:12:46;-1.70;99.90
23744;DHT22;12052;53.478;10.182;2022-12-11T03:15:15;-1.60;99.90
23744;DHT22;12052;53.478;10.182;2022-12-11T03:18:00;-1.70;99.90
23744;DHT22;12052;53.478;10.182;2022-12-11T03:20:43;-1.70;99.90
23744;DHT22;12052;53.478;10.182;2022-12-11T03:23:31;-1.70;99.90
23744;DHT22;12052;53.478;10.182;2022-12-11T03:26:07;-1.70;99.90
23744;DHT22;12052;53.478;10.182;2022-12-11T03:28:48;-1.70;99.90
23744;DHT22;12052;53.478;10.182;2022-12-11T03:31:32;-1.70;99.90
23744;DHT22;12052;53.478;10.182;2022-12-11T03:34:02;-1.70;99.90
23744;DHT22;12052;53.478;10.182;2022-12-11T03:36:35;-1.70;99.90
23744;DHT22;12052;53.478;10.182;2022-12-11T03:39:09;-1.70;99.90
23744;DHT22;12052;53.478;10.182;2022-12-11T03:41:36;-1.70;99.90
23744;DHT22;12052;53.478;10.182;2022-12-11T03:44:04;-1.70;99.90
23744;DHT22;12052;53.478;10.182;2022-12-11T03:46:34;-1.70;99.90
23744;DHT22;12052;53.478;10.182;2022-12-11T03:49:06;-1.70;99.90
23744;DHT22;12052;53.478;10.182;2022-12-11T03:51:34;-1.70;99.90
23744;DHT22;12052;53.478;10.182;2022-12-11T03:54:00;-1.70;99.90
23744;DHT22;12052;53.478;10.182;2022-12-11T03:56:27;-1.80;99.90
23744;DHT22;12052;53.478;10.182;2022-12-11T03:58:54;-1.80;99.90
23744;DHT22;12052;53.478;10.182;2022-12-11T04:01:19;-1.80;99.90
23744;DHT22;12052;53.478;10.182;2022-12-11T04:03:45;-1.80;99.90
23744;DHT22;12052;53.478;10.182;2022-12-11T04:06:10;-1.80;99.90
23744;DHT22;12052;53.478;10.182;2022-12-11T04:08:36;-1.80;99.90
23744;DHT22;12052;53.478;10.182;2022-12-11T04:11:03;-1.80;99.90
23744;DHT22;12052;53.478;10.182;2022-12-11T04:13:47;-1.70;99.90
23744;DHT22;12052;53.478;10.182;2022-12-11T04:16:36;-1.70;99.90
23744;DHT22;12052;53.478;10.182;2022-12-11T04:19:02;-1.70;99.90
23744;DHT22;12052;53.478;10.182;2022-12-11T04:21:46;-1.70;99.90
23744;DHT22;12052;53.478;10.182;2022-12-11T04:24:30;-1.70;99.90
23744;DHT22;12052;53.478;10.182;2022-12-11T04:26:56;-1.70;99.90
23744;DHT22;12052;53.478;10.182;2022-12-11T04:29:21;-1.70;99.90
23744;DHT22;12052;53.478;10.182;2022-12-11T04:31:47;-1.70;99.90
23744;DHT22;12052;53.478;10.182;2022-12-11T04:34:12;-1.70;99.90
23744;DHT22;12052;53.478;10.182;2022-12-11T04:36:38;-1.70;99.90
23744;DHT22;12052;53.478;10.182;2022-12-11T04:39:05;-1.70;99.90
23744;DHT22;12052;53.478;10.182;2022-12-11T04:41:31;-1.70;99.90
23744;DHT22;12052;53.478;10.182;2022-12-11T04:43:56;-1.70;99.90
23744;DHT22;12052;53.478;10.182;2022-12-11T04:46:23;-1.70;99.90
23744;DHT22;12052;53.478;10.182;2022-12-11T04:48:49;-1.80;99.90
23744;DHT22;12052;53.478;10.182;2022-12-11T04:51:15;-1.80;99.90
23744;DHT22;12052;53.478;10.182;2022-12-11T04:53:42;-1.80;99.90
23744;DHT22;12052;53.478;10.182;2022-12-11T04:56:10;-1.80;99.90
23744;DHT22;12052;53.478;10.182;2022-12-11T04:58:36;-1.90;99.90
23744;DHT22;12052;53.478;10.182;2022-12-11T05:01:16;-1.90;99.90
23744;DHT22;12052;53.478;10.182;2022-12-11T05:03:42;-1.90;99.90
23744;DHT22;12052;53.478;10.182;2022-12-11T05:06:09;-1.90;99.90
23744;DHT22;12052;53.478;10.182;2022-12-11T05:08:36;-1.90;99.90
23744;DHT22;12052;53.478;10.182;2022-12-11T05:11:05;-1.90;99.90
23744;DHT22;12052;53.478;10.182;2022-12-11T05:13:31;-1.90;99.90
23744;DHT22;12052;53.478;10.182;2022-12-11T05:15:57;-1.90;99.90
23744;DHT22;12052;53.478;10.182;2022-12-11T05:18:23;-1.90;99.90
23744;DHT22;12052;53.478;10.182;2022-12-11T05:21:00;-1.90;99.90
23744;DHT22;12052;53.478;10.182;2022-12-11T05:23:26;-1.90;99.90
23744;DHT22;12052;53.478;10.182;2022-12-11T05:26:00;-1.90;99.90
23744;DHT22;12052;53.478;10.182;2022-12-11T05:28:30;-1.90;99.90
23744;DHT22;12052;53.478;10.182;2022-12-11T05:30:57;-1.90;99.90
23744;DHT22;12052;53.478;10.182;2022-12-11T05:33:23;-1.90;99.90
23744;DHT22;12052;53.478;10.182;2022-12-11T05:35:49;-1.90;99.90
23744;DHT22;12052;53.478;10.182;2022-12-11T05:38:14;-1.90;99.90
23744;DHT22;12052;53.478;10.182;2022-12-11T05:40:40;-1.90;99.90
23744;DHT22;12052;53.478;10.182;2022-12-11T05:43:06;-1.90;99.90
23744;DHT22;12052;53.478;10.182;2022-12-11T05:45:31;-1.90;99.90
23744;DHT22;12052;53.478;10.182;2022-12-11T05:47:57;-1.90;99.90
23744;DHT22;12052;53.478;10.182;2022-12-11T05:50:23;-1.90;99.90
23744;DHT22;12052;53.478;10.182;2022-12-11T05:52:48;-1.90;99.90
23744;DHT22;12052;53.478;10.182;2022-12-11T05:55:14;-1.90;99.90
23744;DHT22;12052;53.478;10.182;2022-12-11T05:57:39;-1.90;99.90
23744;DHT22;12052;53.478;10.182;2022-12-11T06:00:05;-1.90;99.90
23744;DHT22;12052;53.478;10.182;2022-12-11T06:02:34;-1.90;99.90
23744;DHT22;12052;53.478;10.182;2022-12-11T06:05:00;-1.90;99.90
23744;DHT22;12052;53.478;10.182;2022-12-11T06:07:25;-1.90;99.90
23744;DHT22;12052;53.478;10.182;2022-12-11T06:09:51;-1.90;99.90
23744;DHT22;12052;53.478;10.182;2022-12-11T06:12:16;-1.90;99.90
23744;DHT22;12052;53.478;10.182;2022-12-11T06:14:42;-1.90;99.90
23744;DHT22;12052;53.478;10.182;2022-12-11T06:17:08;-1.90;99.90
23744;DHT22;12052;53.478;10.182;2022-12-11T06:19:33;-2.00;99.90
23744;DHT22;12052;53.478;10.182;2022-12-11T06:21:59;-2.00;99.90
23744;DHT22;12052;53.478;10.182;2022-12-11T06:24:24;-2.00;99.90
23744;DHT22;12052;53.478;10.182;2022-12-11T06:26:50;-2.00;99.90
23744;DHT22;12052;53.478;10.182;2022-12-11T06:29:16;-2.00;99.90
23744;DHT22;12052;53.478;10.182;2022-12-11T06:31:42;-2.10;99.90
23744;DHT22;12052;53.478;10.182;2022-12-11T06:34:08;-2.10;99.90
23744;DHT22;12052;53.478;10.182;2022-12-11T06:36:35;-2.20;99.90
23744;DHT22;12052;53.478;10.182;2022-12-11T06:39:01;-2.20;99.90
23744;DHT22;12052;53.478;10.182;2022-12-11T06:41:27;-2.20;99.90
23744;DHT22;12052;53.478;10.182;2022-12-11T06:43:52;-2.20;99.90
23744;DHT22;12052;53.478;10.182;2022-12-11T06:46:18;-2.20;99.90
23744;DHT22;12052;53.478;10.182;2022-12-11T06:48:45;-2.30;99.90
23744;DHT22;12052;53.478;10.182;2022-12-11T06:51:21;-2.30;99.90
23744;DHT22;12052;53.478;10.182;2022-12-11T06:53:52;-2.30;99.90
23744;DHT22;12052;53.478;10.182;2022-12-11T06:56:18;-2.40;99.90
23744;DHT22;12052;53.478;10.182;2022-12-11T06:58:44;-2.40;99.90
23744;DHT22;12052;53.478;10.182;2022-12-11T07:01:24;-2.40;99.90
23744;DHT22;12052;53.478;10.182;2022-12-11T07:03:55;-2.40;99.90
23744;DHT22;12052;53.478;10.182;2022-12-11T07:06:22;-2.50;99.90
23744;DHT22;12052;53.478;10.182;2022-12-11T07:08:48;-2.50;99.90
23744;DHT22;12052;53.478;10.182;2022-12-11T07:11:15;-2.60;99.90
23744;DHT22;12052;53.478;10.182;2022-12-11T07:13:41;-2.60;99.90
23744;DHT22;12052;53.478;10.182;2022-12-11T07:16:07;-2.60;99.90
23744;DHT22;12052;53.478;10.182;2022-12-11T07:18:39;-2.60;99.90
23744;DHT22;12052;53.478;10.182;2022-12-11T07:21:06;-2.60;99.90
23744;DHT22;12052;53.478;10.182;2022-12-11T07:23:33;-2.70;99.90
23744;DHT22;12052;53.478;10.182;2022-12-11T07:26:03;-2.70;99.90
23744;DHT22;12052;53.478;10.182;2022-12-11T07:28:29;-2.80;99.90
23744;DHT22;12052;53.478;10.182;2022-12-11T07:30:54;-2.90;99.90
23744;DHT22;12052;53.478;10.182;2022-12-11T07:33:20;-2.90;99.90
23744;DHT22;12052;53.478;10.182;2022-12-11T07:35:45;-2.90;99.90
23744;DHT22;12052;53.478;10.182;2022-12-11T07:38:11;-3.00;99.90
23744;DHT22;12052;53.478;10.182;2022-12-11T07:40:36;-3.00;99.90
23744;DHT22;12052;53.478;10.182;2022-12-11T07:43:02;-3.10;99.90
23744;DHT22;12052;53.478;10.182;2022-12-11T07:45:27;-3.10;99.90
23744;DHT22;12052;53.478;10.182;2022-12-11T07:47:53;-3.20;99.90
23744;DHT22;12052;53.478;10.182;2022-12-11T07:50:19;-3.20;99.90
23744;DHT22;12052;53.478;10.182;2022-12-11T07:52:45;-3.20;99.90
23744;DHT22;12052;53.478;10.182;2022-12-11T07:55:10;-3.20;99.90
23744;DHT22;12052;53.478;10.182;2022-12-11T07:57:36;-3.20;99.90
23744;DHT22;12052;53.478;10.182;2022-12-11T08:00:03;-3.20;99.90
23744;DHT22;12052;53.478;10.182;2022-12-11T08:02:29;-3.20;99.90
23744;DHT22;12052;53.478;10.182;2022-12-11T08:04:54;-3.20;99.90
23744;DHT22;12052;53.478;10.182;2022-12-11T08:07:20;-3.20;99.90
23744;DHT22;12052;53.478;10.182;2022-12-11T08:09:45;-3.20;99.90
23744;DHT22;12052;53.478;10.182;2022-12-11T08:12:12;-3.30;99.90
23744;DHT22;12052;53.478;10.182;2022-12-11T08:14:37;-3.30;99.90
23744;DHT22;12052;53.478;10.182;2022-12-11T08:17:03;-3.20;99.90
23744;DHT22;12052;53.478;10.182;2022-12-11T08:19:29;-3.20;99.90
23744;DHT22;12052;53.478;10.182;2022-12-11T08:21:54;-3.10;99.90
23744;DHT22;12052;53.478;10.182;2022-12-11T08:24:20;-3.00;99.90
23744;DHT22;12052;53.478;10.182;2022-12-11T08:26:46;-2.90;99.90
23744;DHT22;12052;53.478;10.182;2022-12-11T08:29:13;-2.80;99.90
23744;DHT22;12052;53.478;10.182;2022-12-11T08:31:40;-2.80;99.90
23744;DHT22;12052;53.478;10.182;2022-12-11T08:34:05;-2.70;99.90
23744;DHT22;12052;53.478;10.182;2022-12-11T08:36:31;-2.70;99.90
23744;DHT22;12052;53.478;10.182;2022-12-11T08:38:57;-2.60;99.90
23744;DHT22;12052;53.478;10.182;2022-12-11T08:41:25;-2.60;99.90
23744;DHT22;12052;53.478;10.182;2022-12-11T08:43:52;-2.50;99.90
23744;DHT22;12052;53.478;10.182;2022-12-11T08:46:20;-2.40;99.90
23744;DHT22;12052;53.478;10.182;2022-12-11T08:48:48;-2.30;99.90
23744;DHT22;12052;53.478;10.182;2022-12-11T08:51:16;-2.30;99.90
23744;DHT22;12052;53.478;10.182;2022-12-11T08:53:43;-2.30;99.90
23744;DHT22;12052;53.478;10.182;2022-12-11T08:56:15;-2.20;99.90
23744;DHT22;12052;53.478;10.182;2022-12-11T08:58:41;-2.10;99.90
23744;DHT22;12052;53.478;10.182;2022-12-11T09:01:12;-2.10;99.90
23744;DHT22;12052;53.478;10.182;2022-12-11T09:03:38;-2.10;99.90
23744;DHT22;12052;53.478;10.182;2022-12-11T09:06:12;-2.10;99.90
23744;DHT22;12052;53.478;10.182;2022-12-11T09:08:38;-2.20;99.90
23744;DHT22;12052;53.478;10.182;2022-12-11T09:11:10;-2.20;99.90
23744;DHT22;12052;53.478;10.182;2022-12-11T09:13:36;-2.20;99.90
23744;DHT22;12052;53.478;10.182;2022-12-11T09:16:10;-2.20;99.90
23744;DHT22;12052;53.478;10.182;2022-12-11T09:18:37;-2.20;99.90
23744;DHT22;12052;53.478;10.182;2022-12-11T09:21:14;-2.20;99.90
23744;DHT22;12052;53.478;10.182;2022-12-11T09:23:40;-2.20;99.90
23744;DHT22;12052;53.478;10.182;2022-12-11T09:26:07;-2.20;99.90
23744;DHT22;12052;53.478;10.182;2022-12-11T09:28:33;-2.20;99.90
23744;DHT22;12052;53.478;10.182;2022-12-11T09:30:59;-2.30;99.90
23744;DHT22;12052;53.478;10.182;2022-12-11T09:33:24;-2.20;99.90
23744;DHT22;12052;53.478;10.182;2022-12-11T09:35:58;-2.30;99.90
23744;DHT22;12052;53.478;10.182;2022-12-11T09:38:23;-2.30;99.90
23744;DHT22;12052;53.478;10.182;2022-12-11T09:40:49;-2.30;99.90
23744;DHT22;12052;53.478;10.182;2022-12-11T09:43:37;-2.30;99.90
23744;DHT22;12052;53.478;10.182;2022-12-11T09:46:08;-2.30;99.90
23744;DHT22;12052;53.478;10.182;2022-12-11T09:48:35;-2.30;99.90
23744;DHT22;12052;53.478;10.182;2022-12-11T09:51:13;-2.30;99.90
23744;DHT22;12052;53.478;10.182;2022-12-11T09:53:41;-2.30;99.90
23744;DHT22;12052;53.478;10.182;2022-12-11T09:56:32;-2.30;99.90
23744;DHT22;12052;53.478;10.182;2022-12-11T09:59:01;-2.30;99.90
23744;DHT22;12052;53.478;10.182;2022-12-11T10:01:38;-2.30;99.90
23744;DHT22;12052;53.478;10.182;2022-12-11T10:09:41;-2.30;99.90
23744;DHT22;12052;53.478;10.182;2022-12-11T10:12:30;-2.30;99.90
23744;DHT22;12052;53.478;10.182;2022-12-11T10:17:50;-2.20;99.90
23744;DHT22;12052;53.478;10.182;2022-12-11T10:20:25;-2.20;99.90
23744;DHT22;12052;53.478;10.182;2022-12-11T10:22:53;-2.20;99.90
23744;DHT22;12052;53.478;10.182;2022-12-11T10:25:28;-2.20;99.90
23744;DHT22;12052;53.478;10.182;2022-12-11T10:27:54;-2.20;99.90
23744;DHT22;12052;53.478;10.182;2022-12-11T10:30:34;-2.10;99.90
23744;DHT22;12052;53.478;10.182;2022-12-11T10:33:22;-2.10;99.90
23744;DHT22;12052;53.478;10.182;2022-12-11T10:35:56;-2.10;99.90
23744;DHT22;12052;53.478;10.182;2022-12-11T10:38:31;-2.10;99.90
23744;DHT22;12052;53.478;10.182;2022-12-11T10:41:02;-2.10;99.90
23744;DHT22;12052;53.478;10.182;2022-12-11T10:43:48;-2.10;99.90
23744;DHT22;12052;53.478;10.182;2022-12-11T10:46:23;-2.10;99.90
23744;DHT22;12052;53.478;10.182;2022-12-11T10:48:52;-2.10;99.90
23744;DHT22;12052;53.478;10.182;2022-12-11T10:51:20;-2.00;99.90
23744;DHT22;12052;53.478;10.182;2022-12-11T10:53:54;-2.00;99.90
23744;DHT22;12052;53.478;10.182;2022-12-11T10:56:26;-2.00;99.90
23744;DHT22;12052;53.478;10.182;2022-12-11T10:58:54;-2.00;99.90
23744;DHT22;12052;53.478;10.182;2022-12-11T11:01:22;-2.00;99.90
23744;DHT22;12052;53.478;10.182;2022-12-11T11:04:21;-2.00;99.90
23744;DHT22;12052;53.478;10.182;2022-12-11T11:06:59;-1.90;99.90
23744;DHT22;12052;53.478;10.182;2022-12-11T11:09:29;-1.90;99.90
23744;DHT22;12052;53.478;10.182;2022-12-11T11:11:56;-1.90;99.90
23744;DHT22;12052;53.478;10.182;2022-12-11T11:14:22;-1.90;99.90
23744;DHT22;12052;53.478;10.182;2022-12-11T11:16:51;-1.90;99.90
23744;DHT22;12052;53.478;10.182;2022-12-11T11:19:23;-1.90;99.90
23744;DHT22;12052;53.478;10.182;2022-12-11T11:21:58;-1.90;99.90
23744;DHT22;12052;53.478;10.182;2022-12-11T11:24:30;-1.90;99.90
23744;DHT22;12052;53.478;10.182;2022-12-11T11:26:57;-1.80;99.90
23744;DHT22;12052;53.478;10.182;2022-12-11T11:29:33;-1.80;99.90
23744;DHT22;12052;53.478;10.182;2022-12-11T11:32:13;-1.80;99.90
23744;DHT22;12052;53.478;10.182;2022-12-11T11:34:40;-1.80;99.90
23744;DHT22;12052;53.478;10.182;2022-12-11T11:37:26;-1.80;99.90
23744;DHT22;12052;53.478;10.182;2022-12-11T11:39:58;-1.70;99.90
23744;DHT22;12052;53.478;10.182;2022-12-11T11:42:57;-1.80;99.90
23744;DHT22;12052;53.478;10.182;2022-12-11T11:50:45;-1.70;99.90
23744;DHT22;12052;53.478;10.182;2022-12-11T11:53:31;-1.70;99.90
23744;DHT22;12052;53.478;10.182;2022-12-11T11:56:24;-1.70;99.90
23744;DHT22;12052;53.478;10.182;2022-12-11T12:01:25;-1.70;99.90
23744;DHT22;12052;53.478;10.182;2022-12-11T12:03:51;-1.60;99.90
23744;DHT22;12052;53.478;10.182;2022-12-11T12:11:37;-1.50;99.90
23744;DHT22;12052;53.478;10.182;2022-12-11T12:14:23;-1.50;99.90
23744;DHT22;12052;53.478;10.182;2022-12-11T12:22:55;-1.30;99.90
23744;DHT22;12052;53.478;10.182;2022-12-11T12:33:56;-1.00;99.90
23744;DHT22;12052;53.478;10.182;2022-12-11T12:39:40;-0.90;99.90
23744;DHT22;12052;53.478;10.182;2022-12-11T12:42:22;-0.80;99.90
23744;DHT22;12052;53.478;10.182;2022-12-11T12:44:58;-0.70;99.90
23744;DHT22;12052;53.478;10.182;2022-12-11T12:47:31;-0.70;99.90
23744;DHT22;12052;53.478;10.182;2022-12-11T12:49:58;-0.60;99.90
23744;DHT22;12052;53.478;10.182;2022-12-11T12:52:31;-0.60;99.90
23744;DHT22;12052;53.478;10.182;2022-12-11T12:57:40;-0.50;99.90
23744;DHT22;12052;53.478;10.182;2022-12-11T13:00:07;-0.50;99.90
23744;DHT22;12052;53.478;10.182;2022-12-11T13:02:36;-0.50;99.90
23744;DHT22;12052;53.478;10.182;2022-12-11T13:05:16;-0.50;99.90
23744;DHT22;12052;53.478;10.182;2022-12-11T13:07:49;-0.50;99.90
23744;DHT22;12052;53.478;10.182;2022-12-11T13:10:32;-0.60;99.90
23744;DHT22;12052;53.478;10.182;2022-12-11T13:12:59;-0.50;99.90
23744;DHT22;12052;53.478;10.182;2022-12-11T13:15:36;-0.50;99.90
23744;DHT22;12052;53.478;10.182;2022-12-11T13:18:29;-0.50;99.90
23744;DHT22;12052;53.478;10.182;2022-12-11T13:20:55;-0.50;99.90
23744;DHT22;12052;53.478;10.182;2022-12-11T13:23:32;-0.60;99.90
23744;DHT22;12052;53.478;10.182;2022-12-11T13:26:01;-0.60;99.90
23744;DHT22;12052;53.478;10.182;2022-12-11T13:31:22;-0.50;99.90
23744;DHT22;12052;53.478;10.182;2022-12-11T13:33:52;-0.50;99.90
23744;DHT22;12052;53.478;10.182;2022-12-11T13:41:29;-0.60;99.90
23744;DHT22;12052;53.478;10.182;2022-12-11T13:43:57;-0.60;99.90
23744;DHT22;12052;53.478;10.182;2022-12-11T13:46:27;-0.60;99.90
23744;DHT22;12052;53.478;10.182;2022-12-11T13:48:56;-0.60;99.90
23744;DHT22;12052;53.478;10.182;2022-12-11T13:51:26;-0.60;99.90
23744;DHT22;12052;53.478;10.182;2022-12-11T13:54:16;-0.70;99.90
23744;DHT22;12052;53.478;10.182;2022-12-11T13:59:35;-0.70;99.90
23744;DHT22;12052;53.478;10.182;2022-12-11T14:02:26;-0.70;99.90
23744;DHT22;12052;53.478;10.182;2022-12-11T14:05:05;-0.70;99.90
23744;DHT22;12052;53.478;10.182;2022-12-11T14:07:39;-0.80;99.90
23744;DHT22;12052;53.478;10.182;2022-12-11T14:10:13;-0.80;99.90
23744;DHT22;12052;53.478;10.182;2022-12-11T14:12:50;-0.90;99.90
23744;DHT22;12052;53.478;10.182;2022-12-11T14:15:16;-0.80;99.90
23744;DHT22;12052;53.478;10.182;2022-12-11T14:17:42;-0.90;99.90
23744;DHT22;12052;53.478;10.182;2022-12-11T14:20:18;-0.80;99.90
23744;DHT22;12052;53.478;10.182;2022-12-11T14:22:44;-0.80;99.90
23744;DHT22;12052;53.478;10.182;2022-12-11T14:25:24;-0.80;99.90
23744;DHT22;12052;53.478;10.182;2022-12-11T14:27:53;-0.80;99.90
23744;DHT22;12052;53.478;10.182;2022-12-11T14:30:30;-0.80;99.90
23744;DHT22;12052;53.478;10.182;2022-12-11T14:33:02;-0.80;99.90
23744;DHT22;12052;53.478;10.182;2022-12-11T14:35:32;-0.80;99.90
23744;DHT22;12052;53.478;10.182;2022-12-11T14:38:01;-0.80;99.90
23744;DHT22;12052;53.478;10.182;2022-12-11T14:40:38;-0.80;99.90
23744;DHT22;12052;53.478;10.182;2022-12-11T14:43:22;-0.80;99.90
23744;DHT22;12052;53.478;10.182;2022-12-11T14:45:56;-0.80;99.90
23744;DHT22;12052;53.478;10.182;2022-12-11T14:48:29;-0.80;99.90
23744;DHT22;12052;53.478;10.182;2022-12-11T14:51:00;-0.80;99.90
23744;DHT22;12052;53.478;10.182;2022-12-11T14:53:36;-0.80;99.90
23744;DHT22;12052;53.478;10.182;2022-12-11T14:56:05;-0.90;99.90
23744;DHT22;12052;53.478;10.182;2022-12-11T14:58:37;-0.90;99.90
23744;DHT22;12052;53.478;10.182;2022-12-11T15:01:19;-0.90;99.90
23744;DHT22;12052;53.478;10.182;2022-12-11T15:03:45;-0.80;99.90
23744;DHT22;12052;53.478;10.182;2022-12-11T15:06:28;-0.80;99.90
23744;DHT22;12052;53.478;10.182;2022-12-11T15:08:54;-0.80;99.90
23744;DHT22;12052;53.478;10.182;2022-12-11T15:11:21;-0.80;99.90
23744;DHT22;12052;53.478;10.182;2022-12-11T15:13:54;-0.80;99.90
23744;DHT22;12052;53.478;10.182;2022-12-11T15:16:23;-0.90;99.90
23744;DHT22;12052;53.478;10.182;2022-12-11T15:18:50;-0.90;99.90
23744;DHT22;12052;53.478;10.182;2022-12-11T15:21:17;-0.90;99.90
23744;DHT22;12052;53.478;10.182;2022-12-11T15:23:54;-0.90;99.90
23744;DHT22;12052;53.478;10.182;2022-12-11T15:26:38;-0.90;99.90
23744;DHT22;12052;53.478;10.182;2022-12-11T15:29:25;-0.90;99.90
23744;DHT22;12052;53.478;10.182;2022-12-11T15:34:46;-0.90;99.90
23744;DHT22;12052;53.478;10.182;2022-12-11T15:37:19;-0.90;99.90
23744;DHT22;12052;53.478;10.182;2022-12-11T15:39:45;-0.80;99.90
23744;DHT22;12052;53.478;10.182;2022-12-11T15:42:13;-0.90;99.90
23744;DHT22;12052;53.478;10.182;2022-12-11T15:44:40;-0.90;99.90
23744;DHT22;12052;53.478;10.182;2022-12-11T15:47:20;-0.90;99.90
23744;DHT22;12052;53.478;10.182;2022-12-11T15:49:46;-0.90;99.90
23744;DHT22;12052;53.478;10.182;2022-12-11T15:52:13;-0.90;99.90
23744;DHT22;12052;53.478;10.182;2022-12-11T15:54:49;-0.90;99.90
23744;DHT22;12052;53.478;10.182;2022-12-11T15:57:29;-0.90;99.90
23744;DHT22;12052;53.478;10.182;2022-12-11T15:59:55;-0.90;99.90
23744;DHT22;12052;53.478;10.182;2022-12-11T16:02:23;-0.90;99.90
23744;DHT22;12052;53.478;10.182;2022-12-11T16:05:01;-0.90;99.90
23744;DHT22;12052;53.478;10.182;2022-12-11T16:07:27;-0.90;99.90
23744;DHT22;12052;53.478;10.182;2022-12-11T16:09:56;-0.90;99.90
23744;DHT22;12052;53.478;10.182;2022-12-11T16:12:22;-0.90;99.90
23744;DHT22;12052;53.478;10.182;2022-12-11T16:14:47;-0.90;99.90
23744;DHT22;12052;53.478;10.182;2022-12-11T16:17:14;-0.90;99.90
23744;DHT22;12052;53.478;10.182;2022-12-11T16:19:41;-0.90;99.90
23744;DHT22;12052;53.478;10.182;2022-12-11T16:22:11;-0.80;99.90
23744;DHT22;12052;53.478;10.182;2022-12-11T16:24:38;-0.80;99.90
23744;DHT22;12052;53.478;10.182;2022-12-11T16:27:04;-0.80;99.90
23744;DHT22;12052;53.478;10.182;2022-12-11T16:29:39;-0.80;99.90
23744;DHT22;12052;53.478;10.182;2022-12-11T16:32:06;-0.80;99.90